sensor_id;sensor_type;location;lat;lon;timestamp;P1;durP1;ratioP1;P2;durP2;ratioP2
74523;SDS011;63074;44.696;10.358;2023-11-19T16:18:09;7.03;;;4.40;;
74523;SDS011;63074;44.696;10.358;2023-11-19T16:20:38;7.20;;;5.15;;
74523;SDS011;63074;44.696;10.358;2023-11-19T16:23:07;7.63;;;5.40;;
74523;SDS011;63074;44.696;10.358;2023-11-19T16:25:33;18.83;;;14.00;;
74523;SDS011;63074;44.696;10.358;2023-11-19T16:28:02;16.80;;;10.73;;
74523;SDS011;63074;44.696;10.358;2023-11-19T16:30:28;15.40;;;10.52;;
74523;SDS011;63074;44.696;10.358;2023-11-19T16:32:57;12.02;;;8.70;;
74523;SDS011;63074;44.696;10.358;2023-11-19T16:35:24;13.77;;;9.55;;
74523;SDS011;63074;44.696;10.358;2023-11-19T16:37:51;11.52;;;9.35;;
74523;SDS011;63074;44.696;10.358;2023-11-19T16:40:17;13.23;;;9.98;;
74523;SDS011;63074;44.696;10.358;2023-11-19T16:42:44;11.00;;;7.75;;
74523;SDS011;63074;44.696;10.358;2023-11-19T16:45:14;12.55;;;7.95;;
74523;SDS011;63074;44.696;10.358;2023-11-19T16:47:41;11.55;;;7.90;;
74523;SDS011;63074;44.696;10.358;2023-11-19T16:50:10;25.73;;;14.55;;
74523;SDS011;63074;44.696;10.358;2023-11-19T16:52:41;18.70;;;11.52;;
74523;SDS011;63074;44.696;10.358;2023-11-19T16:55:08;19.42;;;12.95;;
74523;SDS011;63074;44.696;10.358;2023-11-19T16:57:40;18.70;;;11.60;;
74523;SDS011;63074;44.696;10.358;2023-11-19T17:00:09;20.77;;;12.73;;
74523;SDS011;63074;44.696;10.358;2023-11-19T17:02:37;14.82;;;10.27;;
74523;SDS011;63074;44.696;10.358;2023-11-19T17:05:08;15.55;;;10.00;;
74523;SDS011;63074;44.696;10.358;2023-11-19T17:07:34;16.77;;;11.32;;
74523;SDS011;63074;44.696;10.358;2023-11-19T17:10:01;44.13;;;23.55;;
74523;SDS011;63074;44.696;10.358;2023-11-19T17:12:28;51.15;;;26.83;;
74523;SDS011;63074;44.696;10.358;2023-11-19T17:14:55;42.40;;;21.00;;
74523;SDS011;63074;44.696;10.358;2023-11-19T17:17:29;21.02;;;11.48;;
74523;SDS011;63074;44.696;10.358;2023-11-19T17:19:59;16.35;;;10.38;;
74523;SDS011;63074;44.696;10.358;2023-11-19T17:22:30;17.30;;;9.75;;
74523;SDS011;63074;44.696;10.358;2023-11-19T17:25:03;30.48;;;17.30;;
74523;SDS011;63074;44.696;10.358;2023-11-19T17:27:31;31.63;;;20.70;;
74523;SDS011;63074;44.696;10.358;2023-11-19T17:29:58;26.15;;;14.90;;
74523;SDS011;63074;44.696;10.358;2023-11-19T17:32:25;22.38;;;14.27;;
74523;SDS011;63074;44.696;10.358;2023-11-19T17:34:52;16.48;;;11.75;;
74523;SDS011;63074;44.696;10.358;2023-11-19T17:37:18;13.43;;;8.98;;
74523;SDS011;63074;44.696;10.358;2023-11-19T17:39:45;20.02;;;15.43;;
74523;SDS011;63074;44.696;10.358;2023-11-19T17:42:11;18.98;;;13.10;;
74523;SDS011;63074;44.696;10.358;2023-11-19T17:44:38;15.70;;;11.43;;
74523;SDS011;63074;44.696;10.358;2023-11-19T17:47:04;12.73;;;10.68;;
74523;SDS011;63074;44.696;10.358;2023-11-19T17:49:31;12.93;;;8.32;;
74523;SDS011;63074;44.696;10.358;2023-11-19T17:51:57;14.50;;;9.15;;
74523;SDS011;63074;44.696;10.358;2023-11-19T17:54:24;13.65;;;7.80;;
74523;SDS011;63074;44.696;10.358;2023-11-19T17:56:50;12.48;;;8.00;;
74523;SDS011;63074;44.696;10.358;2023-11-19T17:59:16;11.25;;;7.25;;
74523;SDS011;63074;44.696;10.358;2023-11-19T18:01:43;13.90;;;8.65;;
74523;SDS011;63074;44.696;10.358;2023-11-19T18:04:09;19.13;;;10.77;;
74523;SDS011;63074;44.696;10.358;2023-11-19T18:06:36;13.60;;;8.55;;
74523;SDS011;63074;44.696;10.358;2023-11-19T18:09:02;16.50;;;9.73;;
74523;SDS011;63074;44.696;10.358;2023-11-19T18:11:35;14.35;;;8.90;;
74523;SDS011;63074;44.696;10.358;2023-11-19T18:14:02;10.98;;;7.20;;
74523;SDS011;63074;44.696;10.358;2023-11-19T18:16:28;16.63;;;7.57;;
74523;SDS011;63074;44.696;10.358;2023-11-19T18:18:54;17.88;;;10.82;;
74523;SDS011;63074;44.696;10.358;2023-11-19T18:21:20;13.13;;;8.15;;
74523;SDS011;63074;44.696;10.358;2023-11-19T18:23:46;20.88;;;11.23;;
74523;SDS011;63074;44.696;10.358;2023-11-19T18:26:12;14.88;;;9.88;;
74523;SDS011;63074;44.696;10.358;2023-11-19T18:28:39;31.75;;;15.45;;
74523;SDS011;63074;44.696;10.358;2023-11-19T18:31:05;18.05;;;10.63;;
74523;SDS011;63074;44.696;10.358;2023-11-19T18:33:33;18.15;;;9.65;;
74523;SDS011;63074;44.696;10.358;2023-11-19T18:36:01;18.33;;;9.52;;
74523;SDS011;63074;44.696;10.358;2023-11-19T18:38:29;19.27;;;11.02;;
74523;SDS011;63074;44.696;10.358;2023-11-19T18:40:55;15.27;;;10.55;;
74523;SDS011;63074;44.696;10.358;2023-11-19T18:43:21;12.40;;;7.43;;
74523;SDS011;63074;44.696;10.358;2023-11-19T18:45:47;14.90;;;7.03;;
74523;SDS011;63074;44.696;10.358;2023-11-19T18:48:13;11.75;;;7.45;;
74523;SDS011;63074;44.696;10.358;2023-11-19T18:50:40;10.77;;;7.03;;
74523;SDS011;63074;44.696;10.358;2023-11-19T18:53:06;12.02;;;6.60;;
74523;SDS011;63074;44.696;10.358;2023-11-19T18:55:33;13.05;;;7.15;;
74523;SDS011;63074;44.696;10.358;2023-11-19T18:57:59;12.30;;;6.78;;
74523;SDS011;63074;44.696;10.358;2023-11-19T19:00:25;19.00;;;11.23;;
74523;SDS011;63074;44.696;10.358;2023-11-19T19:02:51;17.80;;;10.35;;
74523;SDS011;63074;44.696;10.358;2023-11-19T19:05:18;14.73;;;7.95;;
74523;SDS011;63074;44.696;10.358;2023-11-19T19:07:44;14.68;;;8.45;;
74523;SDS011;63074;44.696;10.358;2023-11-19T19:10:10;15.50;;;8.20;;
74523;SDS011;63074;44.696;10.358;2023-11-19T19:12:42;11.40;;;7.35;;
74523;SDS011;63074;44.696;10.358;2023-11-19T19:15:11;11.02;;;6.63;;
74523;SDS011;63074;44.696;10.358;2023-11-19T19:17:38;10.88;;;5.75;;
74523;SDS011;63074;44.696;10.358;2023-11-19T19:20:05;9.88;;;5.97;;
74523;SDS011;63074;44.696;10.358;2023-11-19T19:22:35;7.80;;;5.07;;
74523;SDS011;63074;44.696;10.358;2023-11-19T19:25:02;9.25;;;5.78;;
74523;SDS011;63074;44.696;10.358;2023-11-19T19:27:29;9.02;;;5.30;;
74523;SDS011;63074;44.696;10.358;2023-11-19T19:29:56;8.57;;;5.03;;
74523;SDS011;63074;44.696;10.358;2023-11-19T19:32:22;7.50;;;4.97;;
74523;SDS011;63074;44.696;10.358;2023-11-19T19:34:48;8.50;;;5.10;;
74523;SDS011;63074;44.696;10.358;2023-11-19T19:37:14;9.98;;;5.60;;
74523;SDS011;63074;44.696;10.358;2023-11-19T19:39:41;7.68;;;5.32;;
74523;SDS011;63074;44.696;10.358;2023-11-19T19:42:07;6.93;;;5.15;;
74523;SDS011;63074;44.696;10.358;2023-11-19T19:44:34;7.57;;;4.28;;
74523;SDS011;63074;44.696;10.358;2023-11-19T19:47:01;7.85;;;5.13;;
74523;SDS011;63074;44.696;10.358;2023-11-19T19:49:27;8.77;;;5.05;;
74523;SDS011;63074;44.696;10.358;2023-11-19T19:51:54;10.00;;;4.80;;
74523;SDS011;63074;44.696;10.358;2023-11-19T19:54:21;10.55;;;4.22;;
74523;SDS011;63074;44.696;10.358;2023-11-19T19:56:48;11.95;;;6.45;;
74523;SDS011;63074;44.696;10.358;2023-11-19T19:59:14;6.95;;;4.60;;
74523;SDS011;63074;44.696;10.358;2023-11-19T20:01:40;8.90;;;5.88;;
74523;SDS011;63074;44.696;10.358;2023-11-19T20:04:07;7.70;;;4.93;;
74523;SDS011;63074;44.696;10.358;2023-11-19T20:06:37;8.57;;;5.50;;
74523;SDS011;63074;44.696;10.358;2023-11-19T20:09:04;7.75;;;4.70;;
74523;SDS011;63074;44.696;10.358;2023-11-19T20:11:32;9.25;;;5.20;;
74523;SDS011;63074;44.696;10.358;2023-11-19T20:14:02;9.90;;;5.70;;
74523;SDS011;63074;44.696;10.358;2023-11-19T20:16:31;10.23;;;5.93;;
74523;SDS011;63074;44.696;10.358;2023-11-19T20:18:58;8.07;;;5.68;;
74523;SDS011;63074;44.696;10.358;2023-11-19T20:21:24;8.77;;;5.85;;
74523;SDS011;63074;44.696;10.358;2023-11-19T20:23:50;9.73;;;6.15;;
74523;SDS011;63074;44.696;10.358;2023-11-19T20:26:16;11.18;;;5.95;;
74523;SDS011;63074;44.696;10.358;2023-11-19T20:28:46;10.40;;;5.65;;
74523;SDS011;63074;44.696;10.358;2023-11-19T20:31:13;12.30;;;7.20;;
74523;SDS011;63074;44.696;10.358;2023-11-19T20:33:42;11.68;;;5.43;;
74523;SDS011;63074;44.696;10.358;2023-11-19T20:36:09;10.65;;;5.70;;
74523;SDS011;63074;44.696;10.358;2023-11-19T20:38:35;10.43;;;5.97;;
74523;SDS011;63074;44.696;10.358;2023-11-19T20:41:02;9.90;;;5.68;;
74523;SDS011;63074;44.696;10.358;2023-11-19T20:43:28;7.13;;;4.88;;
74523;SDS011;63074;44.696;10.358;2023-11-19T20:45:54;10.93;;;5.05;;
74523;SDS011;63074;44.696;10.358;2023-11-19T20:48:21;8.43;;;5.75;;
74523;SDS011;63074;44.696;10.358;2023-11-19T20:50:47;10.10;;;5.20;;
74523;SDS011;63074;44.696;10.358;2023-11-19T20:53:13;12.43;;;6.43;;
74523;SDS011;63074;44.696;10.358;2023-11-19T20:55:39;8.98;;;5.35;;
74523;SDS011;63074;44.696;10.358;2023-11-19T21:00:37;10.55;;;6.22;;
74523;SDS011;63074;44.696;10.358;2023-11-19T21:05:33;12.15;;;6.88;;
74523;SDS011;63074;44.696;10.358;2023-11-19T21:08:04;10.30;;;5.95;;
74523;SDS011;63074;44.696;10.358;2023-11-19T21:10:31;10.52;;;5.97;;
74523;SDS011;63074;44.696;10.358;2023-11-19T21:12:57;10.45;;;5.70;;
74523;SDS011;63074;44.696;10.358;2023-11-19T21:15:25;9.60;;;6.07;;
74523;SDS011;63074;44.696;10.358;2023-11-19T21:17:52;12.48;;;6.20;;
74523;SDS011;63074;44.696;10.358;2023-11-19T21:20:18;7.60;;;4.95;;
74523;SDS011;63074;44.696;10.358;2023-11-19T21:22:45;12.32;;;6.70;;
74523;SDS011;63074;44.696;10.358;2023-11-19T21:25:11;12.30;;;6.45;;
74523;SDS011;63074;44.696;10.358;2023-11-19T21:27:38;12.32;;;6.20;;
74523;SDS011;63074;44.696;10.358;2023-11-19T21:30:04;11.98;;;6.82;;
74523;SDS011;63074;44.696;10.358;2023-11-19T21:32:31;12.27;;;6.47;;
74523;SDS011;63074;44.696;10.358;2023-11-19T21:34:57;12.02;;;6.93;;
74523;SDS011;63074;44.696;10.358;2023-11-19T21:37:23;10.40;;;5.95;;
74523;SDS011;63074;44.696;10.358;2023-11-19T21:39:49;13.48;;;6.97;;
74523;SDS011;63074;44.696;10.358;2023-11-19T21:42:16;14.05;;;7.07;;
74523;SDS011;63074;44.696;10.358;2023-11-19T21:44:42;11.88;;;7.28;;
74523;SDS011;63074;44.696;10.358;2023-11-19T21:47:08;11.13;;;6.30;;
74523;SDS011;63074;44.696;10.358;2023-11-19T21:49:34;10.15;;;6.30;;
74523;SDS011;63074;44.696;10.358;2023-11-19T21:52:02;10.20;;;5.85;;
74523;SDS011;63074;44.696;10.358;2023-11-19T21:54:29;10.10;;;5.07;;
74523;SDS011;63074;44.696;10.358;2023-11-19T21:56:55;10.77;;;5.47;;
74523;SDS011;63074;44.696;10.358;2023-11-19T21:59:21;7.57;;;5.63;;
74523;SDS011;63074;44.696;10.358;2023-11-19T22:01:47;11.00;;;5.63;;
74523;SDS011;63074;44.696;10.358;2023-11-19T22:04:14;9.65;;;6.22;;
74523;SDS011;63074;44.696;10.358;2023-11-19T22:06:40;10.93;;;5.53;;
74523;SDS011;63074;44.696;10.358;2023-11-19T22:09:06;9.02;;;5.85;;
74523;SDS011;63074;44.696;10.358;2023-11-19T22:11:34;9.25;;;4.80;;
74523;SDS011;63074;44.696;10.358;2023-11-19T22:14:01;7.80;;;5.22;;
74523;SDS011;63074;44.696;10.358;2023-11-19T22:16:27;10.07;;;6.40;;
74523;SDS011;63074;44.696;10.358;2023-11-19T22:18:53;11.82;;;5.00;;
74523;SDS011;63074;44.696;10.358;2023-11-19T22:21:19;11.07;;;6.35;;
74523;SDS011;63074;44.696;10.358;2023-11-19T22:23:45;8.55;;;4.75;;
74523;SDS011;63074;44.696;10.358;2023-11-19T22:26:11;8.57;;;5.75;;
74523;SDS011;63074;44.696;10.358;2023-11-19T22:28:38;8.57;;;6.18;;
74523;SDS011;63074;44.696;10.358;2023-11-19T22:31:05;8.00;;;4.65;;
74523;SDS011;63074;44.696;10.358;2023-11-19T22:33:32;10.82;;;5.40;;
74523;SDS011;63074;44.696;10.358;2023-11-19T22:35:58;10.02;;;5.32;;
74523;SDS011;63074;44.696;10.358;2023-11-19T22:38:24;8.68;;;5.65;;
74523;SDS011;63074;44.696;10.358;2023-11-19T22:40:50;11.50;;;6.43;;
74523;SDS011;63074;44.696;10.358;2023-11-19T22:43:18;12.48;;;5.75;;
74523;SDS011;63074;44.696;10.358;2023-11-19T22:45:44;10.23;;;4.53;;
74523;SDS011;63074;44.696;10.358;2023-11-19T22:48:11;10.88;;;5.38;;
74523;SDS011;63074;44.696;10.358;2023-11-19T22:50:37;8.05;;;5.05;;
74523;SDS011;63074;44.696;10.358;2023-11-19T22:53:04;8.13;;;4.75;;
74523;SDS011;63074;44.696;10.358;2023-11-19T22:55:30;7.72;;;4.95;;
74523;SDS011;63074;44.696;10.358;2023-11-19T22:57:56;10.75;;;5.47;;
74523;SDS011;63074;44.696;10.358;2023-11-19T23:00:22;9.65;;;5.70;;
74523;SDS011;63074;44.696;10.358;2023-11-19T23:02:55;8.77;;;5.30;;
74523;SDS011;63074;44.696;10.358;2023-11-19T23:05:22;9.63;;;4.95;;
74523;SDS011;63074;44.696;10.358;2023-11-19T23:07:52;8.40;;;4.93;;
74523;SDS011;63074;44.696;10.358;2023-11-19T23:10:19;9.05;;;4.43;;
74523;SDS011;63074;44.696;10.358;2023-11-19T23:12:45;8.60;;;4.45;;
74523;SDS011;63074;44.696;10.358;2023-11-19T23:15:11;9.13;;;4.63;;
74523;SDS011;63074;44.696;10.358;2023-11-19T23:20:08;6.45;;;4.40;;
74523;SDS011;63074;44.696;10.358;2023-11-19T23:22:41;7.35;;;3.88;;
74523;SDS011;63074;44.696;10.358;2023-11-19T23:25:08;7.25;;;4.70;;
74523;SDS011;63074;44.696;10.358;2023-11-19T23:27:35;9.20;;;4.78;;
74523;SDS011;63074;44.696;10.358;2023-11-19T23:30:03;9.07;;;5.18;;
74523;SDS011;63074;44.696;10.358;2023-11-19T23:32:29;8.25;;;4.78;;
74523;SDS011;63074;44.696;10.358;2023-11-19T23:34:56;9.50;;;4.25;;
74523;SDS011;63074;44.696;10.358;2023-11-19T23:37:22;7.63;;;4.15;;
74523;SDS011;63074;44.696;10.358;2023-11-19T23:39:50;8.05;;;4.45;;
74523;SDS011;63074;44.696;10.358;2023-11-19T23:42:16;8.30;;;4.50;;
74523;SDS011;63074;44.696;10.358;2023-11-19T23:44:42;7.63;;;4.88;;
74523;SDS011;63074;44.696;10.358;2023-11-19T23:47:08;9.63;;;5.35;;
74523;SDS011;63074;44.696;10.358;2023-11-19T23:49:34;7.25;;;4.55;;
74523;SDS011;63074;44.696;10.358;2023-11-19T23:52:01;7.78;;;4.70;;
74523;SDS011;63074;44.696;10.358;2023-11-19T23:54:30;10.05;;;4.88;;
74523;SDS011;63074;44.696;10.358;2023-11-19T23:56:56;7.93;;;4.85;;
74523;SDS011;63074;44.696;10.358;2023-11-19T23:59:22;11.23;;;5.47;;
